Weather at King Salmon Airport

Public forecast

Using degrees Fahrenheit for public forecast. Weather courtesy of forecast.io.

Current aviation weather report (METAR) for King Salmon Airport

2024/07/13 10:54 (retrieved 37 minutes ago)

PAKN 131054Z 25004KT 10SM OVC006 08/08 A2962

Aviation forecast (TAF) for King Salmon Airport

2024/07/13 10:48 Ammendment (retrieved 43 minutes ago)

AMD PAKN 130935Z 1310/1406 20005KT 5SM BR BKN004 OVC015 FM131500 22005KT 4SM -RA BR OVC007 FM132100 25008KT 4SM -RA BR OVC015 FM140100 23015G25KT 4SM -RA OVC015